Time;durP1;ratioP1;P1;durP2;ratioP2;P2;SDS_P1;SDS_P2;PMS_P1;PMS_P2;Temp;Humidity;BMP_temperature;BMP_pressure;BME280_temperature;BME280_humidity;BME280_pressure;Samples;Min_cycle;Max_cycle;Signal;HPM_P1;HPM_P2
2023/12/19 00:00:56;;;;;;;25.50;22.80;;;1.50;99.90;;;;;;5018221;28;20469;-81
2023/12/19 00:03:23;;;;;;;27.57;23.10;;;1.70;99.90;;;;;;5025964;28;20491;-77
2023/12/19 00:05:51;;;;;;;24.70;22.00;;;1.40;99.90;;;;;;5035821;28;20456;-78
2023/12/19 00:08:18;;;;;;;25.50;22.83;;;1.40;99.90;;;;;;5034631;28;20469;-79
2023/12/19 00:10:44;;;;;;;24.20;21.83;;;1.40;99.90;;;;;;5028009;28;21029;-81
2023/12/19 00:13:11;;;;;;;24.90;21.30;;;1.40;99.90;;;;;;5018850;28;21020;-81
2023/12/19 00:15:39;;;;;;;24.60;22.07;;;1.40;99.90;;;;;;5019565;28;20579;-82
2023/12/19 00:18:05;;;;;;;24.17;21.60;;;1.40;99.90;;;;;;5020104;28;20452;-79
2023/12/19 00:20:32;;;;;;;25.43;22.87;;;1.40;99.90;;;;;;5020709;28;20953;-80
2023/12/19 00:23:01;;;;;;;27.93;22.80;;;1.40;99.90;;;;;;5021756;28;20463;-80
2023/12/19 00:25:30;;;;;;;24.97;22.37;;;1.40;99.90;;;;;;5022457;28;20437;-80
2023/12/19 00:27:58;;;;;;;26.10;23.30;;;1.40;99.90;;;;;;5023370;28;20444;-81
2023/12/19 00:30:25;;;;;;;28.20;22.83;;;1.60;99.90;;;;;;5021890;28;20476;-80
2023/12/19 00:32:52;;;;;;;25.60;22.90;;;1.30;99.90;;;;;;5021059;28;20506;-81
2023/12/19 00:35:19;;;;;;;26.33;23.50;;;1.30;99.90;;;;;;5021995;28;20516;-80
2023/12/19 00:37:46;;;;;;;27.50;24.13;;;1.30;99.90;;;;;;5024765;28;20483;-80
2023/12/19 00:40:14;;;;;;;26.23;23.60;;;1.30;99.90;;;;;;5024586;28;20475;-81
2023/12/19 00:42:41;;;;;;;24.90;22.27;;;1.30;99.90;;;;;;5025561;28;20444;-81
2023/12/19 00:45:09;;;;;;;27.50;24.53;;;1.60;99.90;;;;;;5024529;28;20464;-79
2023/12/19 00:47:35;;;;;;;31.13;24.57;;;1.20;99.90;;;;;;5024304;28;20450;-82
2023/12/19 00:50:09;;;;;;;25.90;23.10;;;1.20;99.90;;;;;;5021996;28;20985;-80
2023/12/19 00:52:36;;;;;;;28.50;24.40;;;1.20;99.90;;;;;;5021381;28;20450;-81
2023/12/19 00:55:02;;;;;;;27.43;24.53;;;1.20;99.90;;;;;;5023143;28;20499;-80
2023/12/19 00:57:30;;;;;;;27.20;24.40;;;1.10;99.90;;;;;;5027352;28;20470;-81
2023/12/19 00:59:57;;;;;;;25.23;22.50;;;1.10;99.90;;;;;;5027382;28;20471;-80
2023/12/19 01:02:28;;;;;;;28.53;23.60;;;1.10;99.90;;;;;;5029458;28;20455;-78
2023/12/19 01:04:56;;;;;;;26.30;23.63;;;1.10;99.90;;;;;;5029285;28;20444;-78
2023/12/19 01:07:23;;;;;;;27.43;24.77;;;1.00;99.90;;;;;;5019305;28;20457;-80
2023/12/19 01:09:49;;;;;;;25.67;23.17;;;1.00;99.90;;;;;;5018397;28;20868;-80
2023/12/19 01:12:18;;;;;;;28.97;23.40;;;1.00;99.90;;;;;;5021246;28;20455;-80
2023/12/19 01:14:46;;;;;;;25.17;22.67;;;0.90;99.90;;;;;;5021320;28;20506;-80
2023/12/19 01:17:13;;;;;;;23.60;21.17;;;1.00;99.90;;;;;;5021099;28;20479;-79
2023/12/19 01:19:39;;;;;;;24.13;21.63;;;1.00;99.90;;;;;;5020216;28;20875;-82
2023/12/19 01:22:06;;;;;;;23.80;21.30;;;1.00;99.90;;;;;;5020498;28;20471;-82
2023/12/19 01:24:33;;;;;;;22.77;20.37;;;1.10;99.90;;;;;;5020725;28;20437;-81
2023/12/19 01:26:59;;;;;;;23.47;21.07;;;1.00;99.90;;;;;;5020924;28;20868;-80
2023/12/19 01:29:26;;;;;;;24.60;21.20;;;1.00;99.90;;;;;;5020749;28;20439;-82
2023/12/19 01:31:54;;;;;;;23.50;20.67;;;1.00;99.90;;;;;;5020902;28;20432;-80
2023/12/19 01:34:21;;;;;;;23.43;20.47;;;0.70;99.90;;;;;;5020259;28;20439;-79
2023/12/19 01:36:48;;;;;;;22.40;20.10;;;1.10;99.90;;;;;;5020070;28;20483;-81
2023/12/19 01:39:18;;;;;;;21.60;19.50;;;1.00;99.90;;;;;;5020453;28;21040;-82
2023/12/19 01:41:44;;;;;;;21.60;19.30;;;1.00;99.90;;;;;;5019970;28;20455;-81
2023/12/19 01:44:18;;;;;;;22.13;19.50;;;1.00;99.90;;;;;;5020340;28;20436;-80
2023/12/19 01:46:45;;;;;;;26.57;20.57;;;1.00;99.90;;;;;;5020708;28;20476;-81
2023/12/19 01:49:15;;;;;;;23.23;20.90;;;0.90;99.90;;;;;;5020749;28;20448;-79
2023/12/19 01:51:42;;;;;;;20.00;18.07;;;0.90;99.90;;;;;;5020388;28;20486;-80
2023/12/19 01:54:10;;;;;;;21.30;19.10;;;1.00;99.90;;;;;;5019912;28;20463;-80
2023/12/19 01:56:37;;;;;;;22.00;19.67;;;1.00;99.90;;;;;;5019995;28;20577;-82
2023/12/19 01:59:06;;;;;;;22.13;19.93;;;1.00;99.90;;;;;;5019826;28;20936;-82
2023/12/19 02:01:35;;;;;;;21.67;19.30;;;1.00;99.90;;;;;;5020337;28;20467;-81
2023/12/19 02:04:02;;;;;;;19.50;17.40;;;1.00;99.90;;;;;;5020414;28;20505;-80
2023/12/19 02:06:34;;;;;;;21.33;18.97;;;1.00;99.90;;;;;;5020258;28;20506;-82
2023/12/19 02:09:01;;;;;;;19.87;17.93;;;1.00;99.90;;;;;;5020645;28;20440;-79
2023/12/19 02:11:28;;;;;;;20.17;18.27;;;1.00;99.90;;;;;;5032603;28;20460;-79
2023/12/19 02:13:56;;;;;;;19.67;17.63;;;1.30;99.90;;;;;;5031396;28;20432;-80
2023/12/19 02:16:24;;;;;;;20.63;18.37;;;0.90;99.90;;;;;;5024278;28;20989;-80
2023/12/19 02:19:01;;;;;;;20.87;17.90;;;0.90;99.90;;;;;;5021256;28;20519;-80
2023/12/19 02:21:28;;;;;;;20.93;17.27;;;0.90;99.90;;;;;;5015389;28;20492;-80
2023/12/19 02:23:56;;;;;;;19.37;17.40;;;1.20;99.90;;;;;;5016993;28;20450;-80
2023/12/19 02:26:23;;;;;;;18.97;16.83;;;0.90;99.90;;;;;;5013483;28;20522;-81
2023/12/19 02:28:52;;;;;;;20.37;18.30;;;0.90;99.90;;;;;;5016588;28;21032;-82
2023/12/19 02:31:19;;;;;;;19.63;17.67;;;0.90;99.90;;;;;;5017678;28;20476;-80
2023/12/19 02:33:46;;;;;;;22.37;19.23;;;0.90;99.90;;;;;;5016804;28;20445;-79
2023/12/19 02:36:13;;;;;;;20.13;17.93;;;1.10;99.90;;;;;;5015392;28;20486;-81
2023/12/19 02:38:40;;;;;;;20.47;18.30;;;1.10;99.90;;;;;;5017356;28;20443;-80
2023/12/19 02:41:10;;;;;;;18.50;16.60;;;0.90;99.90;;;;;;5017027;28;20472;-80
2023/12/19 02:43:37;;;;;;;21.23;18.30;;;0.80;99.90;;;;;;5017621;28;20444;-80
2023/12/19 02:46:04;;;;;;;18.80;16.90;;;0.80;99.90;;;;;;5017573;28;20442;-79
2023/12/19 02:48:30;;;;;;;19.23;17.33;;;0.80;99.90;;;;;;5018318;28;20696;-82
2023/12/19 02:50:57;;;;;;;19.33;17.27;;;0.80;99.90;;;;;;5017864;28;20464;-80
2023/12/19 02:53:24;;;;;;;20.90;18.10;;;0.80;99.90;;;;;;5017738;28;20436;-82
2023/12/19 02:55:50;;;;;;;19.20;17.27;;;0.80;99.90;;;;;;5017762;28;20468;-81
2023/12/19 02:58:18;;;;;;;19.87;17.80;;;0.80;99.90;;;;;;5023666;28;20696;-77
2023/12/19 03:00:45;;;;;;;18.70;16.80;;;0.80;99.90;;;;;;5037994;28;20451;-77
2023/12/19 03:03:12;;;;;;;19.00;16.40;;;0.70;99.90;;;;;;5036438;28;20486;-80
2023/12/19 03:05:39;;;;;;;18.20;16.27;;;0.70;99.90;;;;;;5035368;28;20427;-79
2023/12/19 03:08:05;;;;;;;22.03;17.90;;;0.60;99.90;;;;;;5035502;28;20434;-80
2023/12/19 03:10:32;;;;;;;19.17;17.27;;;0.60;99.90;;;;;;5026560;28;20939;-82
2023/12/19 03:12:59;;;;;;;18.67;16.90;;;0.60;99.90;;;;;;5020739;28;20433;-82
2023/12/19 03:15:27;;;;;;;19.50;16.93;;;0.90;99.90;;;;;;5020185;28;20479;-81
2023/12/19 03:17:54;;;;;;;20.47;17.70;;;0.70;99.90;;;;;;5019351;28;20532;-80
2023/12/19 03:20:20;;;;;;;19.37;17.43;;;0.60;99.90;;;;;;5019989;28;20928;-80
2023/12/19 03:22:47;;;;;;;18.47;16.00;;;0.60;99.90;;;;;;5019567;28;20764;-81
2023/12/19 03:25:14;;;;;;;18.10;15.97;;;0.60;99.90;;;;;;5019455;28;20449;-81
2023/12/19 03:27:41;;;;;;;17.90;16.07;;;0.60;99.90;;;;;;5019366;28;20443;-82
2023/12/19 03:30:08;;;;;;;18.80;16.87;;;0.80;99.90;;;;;;5018958;28;20489;-79
2023/12/19 03:32:38;;;;;;;18.47;15.77;;;0.60;99.90;;;;;;5019176;28;20439;-81
2023/12/19 03:35:06;;;;;;;18.20;16.50;;;0.60;99.90;;;;;;5018586;28;20856;-80
2023/12/19 03:37:32;;;;;;;19.03;17.17;;;0.60;99.90;;;;;;5018893;28;20455;-83
2023/12/19 03:39:59;;;;;;;20.00;16.87;;;0.60;99.90;;;;;;5019141;28;20449;-80
2023/12/19 03:42:26;;;;;;;17.53;15.60;;;0.60;99.90;;;;;;5019801;28;20439;-78
2023/12/19 03:44:52;;;;;;;16.63;15.03;;;0.60;99.90;;;;;;5036723;28;20439;-77
2023/12/19 03:47:19;;;;;;;19.50;17.53;;;0.50;99.90;;;;;;5037369;28;20487;-79
2023/12/19 03:49:50;;;;;;;18.10;16.40;;;0.50;99.90;;;;;;5037271;28;20458;-76
2023/12/19 03:52:17;;;;;;;18.50;16.70;;;0.50;99.90;;;;;;5036986;28;20430;-78
2023/12/19 03:54:45;;;;;;;18.37;16.57;;;0.50;99.90;;;;;;5036867;28;20433;-77
2023/12/19 03:57:11;;;;;;;18.20;16.30;;;0.50;99.90;;;;;;5037068;28;20510;-76
2023/12/19 03:59:38;;;;;;;18.43;16.60;;;0.50;99.90;;;;;;5037326;28;20432;-77
2023/12/19 04:02:05;;;;;;;18.17;16.47;;;0.40;99.90;;;;;;5036288;28;20453;-78
2023/12/19 04:04:31;;;;;;;18.10;16.30;;;0.50;99.90;;;;;;5036929;28;20439;-76
2023/12/19 04:06:59;;;;;;;17.97;16.17;;;0.50;99.90;;;;;;5033877;28;20447;-77
2023/12/19 04:09:26;;;;;;;17.40;15.57;;;0.50;99.90;;;;;;5036577;28;20428;-77
2023/12/19 04:11:54;;;;;;;17.60;15.63;;;0.50;99.90;;;;;;5036435;28;20467;-77
2023/12/19 04:14:23;;;;;;;18.83;16.93;;;0.40;99.90;;;;;;5036945;28;20427;-77
2023/12/19 04:16:49;;;;;;;17.10;15.40;;;0.40;99.90;;;;;;5036863;28;20467;-76
2023/12/19 04:19:16;;;;;;;17.33;15.63;;;0.50;99.90;;;;;;5036991;28;20436;-77
2023/12/19 04:21:43;;;;;;;17.20;15.40;;;0.40;99.90;;;;;;5036729;28;20439;-77
2023/12/19 04:24:12;;;;;;;17.00;15.20;;;0.40;99.90;;;;;;5036704;28;20500;-77
2023/12/19 04:26:38;;;;;;;17.40;15.37;;;0.40;99.90;;;;;;5035806;28;20511;-79
2023/12/19 04:29:05;;;;;;;16.70;14.97;;;0.30;99.90;;;;;;5035949;28;20428;-79
2023/12/19 04:31:31;;;;;;;17.17;15.10;;;0.30;99.90;;;;;;5035743;28;20464;-79
2023/12/19 04:33:58;;;;;;;16.60;14.90;;;0.30;99.90;;;;;;5036051;28;20450;-76
2023/12/19 04:36:25;;;;;;;15.93;14.40;;;0.50;99.90;;;;;;5036238;28;20463;-78
2023/12/19 04:38:52;;;;;;;20.40;15.63;;;0.30;99.90;;;;;;5036291;28;20439;-79
2023/12/19 04:41:20;;;;;;;16.73;15.10;;;0.30;99.90;;;;;;5036030;28;20571;-78
2023/12/19 04:43:46;;;;;;;18.23;16.27;;;0.50;99.90;;;;;;5035510;28;20427;-78
2023/12/19 04:46:13;;;;;;;17.87;16.17;;;0.30;99.90;;;;;;5019081;28;20850;-81
2023/12/19 04:48:42;;;;;;;19.77;17.83;;;0.30;99.90;;;;;;5018830;28;20444;-81
2023/12/19 04:51:16;;;;;;;18.93;16.93;;;0.30;99.90;;;;;;5020613;28;20526;-81
2023/12/19 04:53:43;;;;;;;18.40;16.60;;;0.50;99.90;;;;;;5015712;28;20430;-81
2023/12/19 04:56:11;;;;;;;19.10;17.30;;;0.30;99.90;;;;;;5016236;28;20498;-78
2023/12/19 04:58:39;;;;;;;18.60;16.47;;;0.30;99.90;;;;;;5013743;28;20432;-80
2023/12/19 05:01:06;;;;;;;19.80;16.40;;;0.30;99.90;;;;;;5015268;28;20455;-82
2023/12/19 05:03:33;;;;;;;16.77;15.17;;;0.30;99.90;;;;;;5015077;28;20448;-82
2023/12/19 05:06:00;;;;;;;17.90;16.10;;;0.30;99.90;;;;;;5015941;28;20451;-80
2023/12/19 05:08:27;;;;;;;20.40;17.83;;;0.30;99.90;;;;;;5017661;28;20447;-81
2023/12/19 05:10:53;;;;;;;23.23;20.33;;;0.30;99.90;;;;;;5016757;28;20859;-81
2023/12/19 05:13:20;;;;;;;20.33;18.20;;;0.20;99.90;;;;;;5020620;28;20816;-81
2023/12/19 05:15:48;;;;;;;25.73;18.27;;;0.40;99.90;;;;;;5020491;28;20440;-80
2023/12/19 05:18:18;;;;;;;18.73;16.77;;;0.20;99.90;;;;;;5020232;28;20447;-80
2023/12/19 05:20:45;;;;;;;20.23;17.73;;;0.20;99.90;;;;;;5021912;28;20463;-80
2023/12/19 05:23:11;;;;;;;19.37;17.30;;;0.20;99.90;;;;;;5019170;28;20446;-82
2023/12/19 05:25:38;;;;;;;17.97;16.13;;;0.60;99.90;;;;;;5019118;28;20435;-79
2023/12/19 05:28:05;;;;;;;19.87;17.03;;;0.20;99.90;;;;;;5019445;28;20471;-82
2023/12/19 05:30:32;;;;;;;21.00;18.97;;;0.20;99.90;;;;;;5020878;28;20483;-81
2023/12/19 05:33:00;;;;;;;19.33;17.07;;;0.20;99.90;;;;;;5020270;28;20435;-81
2023/12/19 05:35:27;;;;;;;18.60;16.67;;;0.20;99.90;;;;;;5020334;28;20439;-80
2023/12/19 05:37:54;;;;;;;18.07;16.27;;;0.00;99.90;;;;;;5022795;28;20486;-82
2023/12/19 05:40:20;;;;;;;17.63;15.73;;;0.30;99.90;;;;;;5020958;28;20546;-81
2023/12/19 05:42:47;;;;;;;16.20;14.60;;;0.00;99.90;;;;;;5024105;28;20454;-82
2023/12/19 05:45:14;;;;;;;17.17;15.43;;;0.00;99.90;;;;;;5021800;28;20440;-81
2023/12/19 05:47:40;;;;;;;17.77;15.90;;;0.10;99.90;;;;;;5025210;28;20558;-81
2023/12/19 05:50:09;;;;;;;18.43;16.50;;;0.10;99.90;;;;;;5027013;28;20462;-80
2023/12/19 05:52:36;;;;;;;18.67;16.20;;;0.00;99.90;;;;;;5022703;28;20443;-80
2023/12/19 05:55:02;;;;;;;18.10;16.30;;;0.10;99.90;;;;;;5027987;28;20458;-80
2023/12/19 05:57:29;;;;;;;17.00;15.40;;;0.00;99.90;;;;;;5038330;28;20470;-78
2023/12/19 05:59:56;;;;;;;29.80;25.83;;;0.10;99.90;;;;;;5030781;28;20493;-80
2023/12/19 06:02:22;;;;;;;25.83;19.97;;;0.00;99.90;;;;;;5028131;28;20450;-81
2023/12/19 06:04:49;;;;;;;18.43;16.53;;;0.10;99.90;;;;;;5029337;28;20494;-79
2023/12/19 06:07:18;;;;;;;19.20;16.50;;;0.00;99.90;;;;;;5024131;28;20455;-81
2023/12/19 06:09:44;;;;;;;19.67;15.53;;;0.10;99.90;;;;;;5021672;28;20466;-82
2023/12/19 06:12:11;;;;;;;16.67;15.07;;;0.00;99.90;;;;;;5025028;28;20554;-81
2023/12/19 06:14:38;;;;;;;18.83;14.97;;;0.00;99.90;;;;;;5024483;28;20472;-81
2023/12/19 06:17:05;;;;;;;15.80;14.40;;;0.00;99.90;;;;;;5021542;28;20468;-80
2023/12/19 06:19:31;;;;;;;16.93;15.13;;;0.00;99.90;;;;;;5020285;28;20436;-80
2023/12/19 06:21:59;;;;;;;19.53;15.57;;;-0.10;99.90;;;;;;5023726;28;20466;-80
2023/12/19 06:24:27;;;;;;;16.73;14.70;;;0.00;99.90;;;;;;5019574;28;20845;-81
2023/12/19 06:26:53;;;;;;;17.53;14.97;;;0.00;99.90;;;;;;5018372;28;20443;-82
2023/12/19 06:29:20;;;;;;;15.60;13.90;;;-0.10;99.90;;;;;;5017845;28;20523;-81
2023/12/19 06:31:47;;;;;;;16.27;13.80;;;0.20;99.90;;;;;;5018457;28;20460;-80
2023/12/19 06:34:13;;;;;;;15.23;13.07;;;-0.10;99.90;;;;;;5017418;28;20451;-79
2023/12/19 06:36:41;;;;;;;13.90;12.50;;;0.20;99.90;;;;;;5017771;28;20529;-80
2023/12/19 06:39:08;;;;;;;13.13;10.97;;;0.20;99.90;;;;;;5019702;28;20503;-79
2023/12/19 06:41:36;;;;;;;12.43;11.20;;;0.20;99.90;;;;;;5018791;28;20463;-81
2023/12/19 06:44:03;;;;;;;11.43;10.33;;;-0.10;99.90;;;;;;5018995;28;20432;-84
2023/12/19 06:46:30;;;;;;;12.30;11.13;;;0.00;99.90;;;;;;5019566;28;20443;-81
2023/12/19 06:48:57;;;;;;;14.70;11.60;;;0.00;99.90;;;;;;5019676;28;20436;-81
2023/12/19 06:51:24;;;;;;;11.80;10.60;;;0.00;99.90;;;;;;5020245;28;20471;-82
2023/12/19 06:53:52;;;;;;;12.73;11.43;;;0.00;99.90;;;;;;5020717;28;20439;-82
2023/12/19 06:56:19;;;;;;;12.57;11.37;;;0.00;99.90;;;;;;5021073;28;20493;-82
2023/12/19 06:58:47;;;;;;;14.00;12.50;;;0.00;99.90;;;;;;5019884;28;20439;-82
2023/12/19 07:01:14;;;;;;;13.80;12.30;;;0.00;99.90;;;;;;5020401;28;20455;-81
2023/12/19 07:03:41;;;;;;;13.97;11.70;;;0.00;99.90;;;;;;5018631;28;20783;-81
2023/12/19 07:06:08;;;;;;;13.37;12.07;;;0.30;99.90;;;;;;5018159;28;20954;-80
2023/12/19 07:08:35;;;;;;;14.40;12.57;;;0.10;99.90;;;;;;5017390;28;20798;-80
2023/12/19 07:11:02;;;;;;;15.57;13.80;;;0.20;99.90;;;;;;5018762;28;21042;-81
2023/12/19 07:13:29;;;;;;;15.20;13.70;;;0.40;99.90;;;;;;5019518;28;20436;-80
2023/12/19 07:15:57;;;;;;;25.80;21.83;;;0.70;99.90;;;;;;5020685;28;20443;-80
2023/12/19 07:18:23;;;;;;;18.10;15.03;;;0.70;99.90;;;;;;5019228;28;20479;-79
2023/12/19 07:20:50;;;;;;;15.57;14.00;;;1.00;99.90;;;;;;5018506;28;20463;-83
2023/12/19 07:23:17;;;;;;;15.07;13.23;;;0.70;99.90;;;;;;5016615;28;20497;-79
2023/12/19 07:25:44;;;;;;;16.73;14.90;;;0.50;99.90;;;;;;5017712;28;20447;-81
2023/12/19 07:28:10;;;;;;;15.53;13.43;;;0.50;99.90;;;;;;5017067;28;20436;-82
2023/12/19 07:30:37;;;;;;;14.10;12.70;;;0.40;99.90;;;;;;5015847;28;20459;-80
2023/12/19 07:33:05;;;;;;;16.13;14.40;;;0.40;99.90;;;;;;5015993;28;20463;-81
2023/12/19 07:35:32;;;;;;;16.67;13.70;;;0.30;99.90;;;;;;5017194;28;20462;-80
2023/12/19 07:37:59;;;;;;;15.97;14.37;;;0.30;99.90;;;;;;5016049;28;20541;-83
2023/12/19 07:40:25;;;;;;;15.17;13.67;;;0.30;99.90;;;;;;5024065;28;20475;-79
2023/12/19 07:42:52;;;;;;;24.97;20.13;;;0.60;99.90;;;;;;5027298;28;20442;-80
2023/12/19 07:45:19;;;;;;;17.93;16.13;;;0.30;99.90;;;;;;5019062;28;20428;-80
2023/12/19 07:47:45;;;;;;;15.53;14.00;;;0.30;99.90;;;;;;5016616;28;20451;-80
2023/12/19 07:50:13;;;;;;;17.57;15.77;;;0.30;99.90;;;;;;5015751;28;20496;-82
2023/12/19 07:52:40;;;;;;;16.20;14.50;;;0.30;99.90;;;;;;5014535;28;20466;-81
2023/12/19 07:55:10;;;;;;;16.97;15.17;;;0.50;99.90;;;;;;5016680;28;20450;-83
2023/12/19 07:57:37;;;;;;;21.17;14.50;;;0.40;99.90;;;;;;5016476;28;20471;-82
2023/12/19 08:00:04;;;;;;;18.97;15.27;;;0.40;99.90;;;;;;5016831;28;20451;-83
2023/12/19 08:02:32;;;;;;;20.43;16.70;;;0.40;99.90;;;;;;5016770;28;20494;-83
2023/12/19 08:04:59;;;;;;;21.93;15.90;;;0.40;99.90;;;;;;5017595;28;20446;-83
2023/12/19 08:07:27;;;;;;;17.57;15.77;;;0.40;99.90;;;;;;5019443;28;20502;-83
2023/12/19 08:09:54;;;;;;;18.13;16.30;;;0.50;99.90;;;;;;5021280;28;20486;-83
2023/12/19 08:12:20;;;;;;;18.17;16.37;;;0.50;99.90;;;;;;5016326;28;20508;-83
2023/12/19 08:14:47;;;;;;;17.80;16.00;;;0.50;99.90;;;;;;5019555;28;20436;-82
2023/12/19 08:17:14;;;;;;;21.83;16.67;;;0.80;99.90;;;;;;5018553;28;20498;-82
2023/12/19 08:19:41;;;;;;;20.50;17.23;;;0.60;99.90;;;;;;5017994;28;20859;-83
2023/12/19 08:22:08;;;;;;;17.80;16.07;;;0.60;99.90;;;;;;5024041;28;20435;-83
2023/12/19 08:24:37;;;;;;;19.37;17.43;;;0.60;99.90;;;;;;5021601;28;20431;-83
2023/12/19 08:27:04;;;;;;;19.27;17.20;;;0.70;99.90;;;;;;5021296;28;20906;-83
2023/12/19 08:29:31;;;;;;;19.80;17.57;;;0.80;99.90;;;;;;5017348;28;20439;-83
2023/12/19 08:31:58;;;;;;;19.63;17.70;;;0.90;99.90;;;;;;5017055;28;20457;-83
2023/12/19 08:34:24;;;;;;;19.90;17.93;;;1.00;99.90;;;;;;5017496;28;20459;-83
2023/12/19 08:36:51;;;;;;;22.67;17.73;;;1.10;99.90;;;;;;5017982;28;20439;-83
2023/12/19 08:39:18;;;;;;;18.47;16.67;;;1.10;99.90;;;;;;5018024;28;20439;-82
2023/12/19 08:41:46;;;;;;;19.17;17.17;;;1.20;99.90;;;;;;5017280;28;20466;-83
2023/12/19 08:44:13;;;;;;;18.23;16.33;;;1.30;99.90;;;;;;5018896;28;20441;-83
2023/12/19 08:46:39;;;;;;;21.13;18.20;;;1.40;99.90;;;;;;5017088;28;20433;-83
2023/12/19 08:49:06;;;;;;;20.37;18.17;;;1.50;99.90;;;;;;5017417;28;20965;-83
2023/12/19 08:51:33;;;;;;;21.00;18.87;;;1.50;99.90;;;;;;5022591;28;20456;-82
2023/12/19 08:54:00;;;;;;;21.37;18.00;;;1.50;99.90;;;;;;5025287;28;20446;-82
2023/12/19 08:56:27;;;;;;;20.33;17.40;;;1.60;99.90;;;;;;5030927;28;20435;-83
2023/12/19 08:58:55;;;;;;;24.20;18.40;;;1.60;99.90;;;;;;5036189;28;20518;-83
2023/12/19 09:01:22;;;;;;;18.97;16.97;;;1.70;99.90;;;;;;5018523;28;20472;-83
2023/12/19 09:03:48;;;;;;;20.90;17.60;;;1.70;99.90;;;;;;5016881;28;20440;-84
2023/12/19 09:06:15;;;;;;;21.40;16.80;;;2.00;99.90;;;;;;5017001;28;20447;-83
2023/12/19 09:08:42;;;;;;;23.43;16.87;;;2.20;99.90;;;;;;5015304;28;20444;-83
2023/12/19 09:11:08;;;;;;;18.47;16.57;;;2.40;99.90;;;;;;5014784;28;20472;-83
2023/12/19 09:13:38;;;;;;;18.83;16.07;;;2.50;99.90;;;;;;5014642;28;20453;-82
2023/12/19 09:16:07;;;;;;;18.37;16.47;;;2.80;99.90;;;;;;5012593;28;20519;-83
2023/12/19 09:18:34;;;;;;;19.50;16.20;;;3.00;99.90;;;;;;5015967;28;21046;-81
2023/12/19 09:21:01;;;;;;;18.10;16.17;;;3.20;99.90;;;;;;5015423;28;20483;-82
2023/12/19 09:23:37;;;;;;;17.00;15.30;;;3.40;99.90;;;;;;5017572;28;20455;-82
2023/12/19 09:26:05;;;;;;;20.33;15.80;;;3.70;99.90;;;;;;5021860;28;20451;-83
2023/12/19 09:28:34;;;;;;;18.57;16.60;;;3.70;99.90;;;;;;5020142;28;20446;-83
2023/12/19 09:31:10;;;;;;;18.67;16.30;;;4.00;99.90;;;;;;5026215;28;20478;-82
2023/12/19 09:33:55;;;;;;;17.13;15.33;;;4.10;99.90;;;;;;5036061;28;20459;-80
2023/12/19 09:36:29;;;;;;;19.20;15.53;;;4.20;99.90;;;;;;5032664;28;20448;-79
2023/12/19 09:39:01;;;;;;;17.23;15.43;;;4.00;99.90;;;;;;5027217;28;20496;-79
2023/12/19 09:41:44;;;;;;;15.37;13.93;;;4.30;99.90;;;;;;5027999;28;20549;-81
2023/12/19 09:44:19;;;;;;;18.37;15.40;;;4.70;99.90;;;;;;5034039;28;20449;-81
2023/12/19 09:46:53;;;;;;;16.73;15.03;;;4.80;99.90;;;;;;5032335;28;20434;-79
2023/12/19 09:49:23;;;;;;;20.23;16.03;;;4.80;99.90;;;;;;5029216;28;20425;-82
2023/12/19 09:51:55;;;;;;;17.33;15.57;;;5.20;99.90;;;;;;5034772;28;20473;-80
2023/12/19 09:54:29;;;;;;;15.90;14.40;;;5.20;99.90;;;;;;5033867;28;20486;-80
2023/12/19 09:57:13;;;;;;;18.70;15.00;;;5.20;99.90;;;;;;5033061;28;20458;-82
2023/12/19 09:59:47;;;;;;;16.03;14.53;;;5.20;99.90;;;;;;5023619;28;20412;-81
2023/12/19 10:02:24;;;;;;;16.63;14.87;;;5.20;99.90;;;;;;5034289;28;20450;-81
2023/12/19 10:05:00;;;;;;;17.40;14.73;;;4.90;99.90;;;;;;5034064;28;20442;-81
2023/12/19 10:07:40;;;;;;;18.37;16.47;;;4.70;99.90;;;;;;5034976;28;20532;-80
2023/12/19 10:10:18;;;;;;;17.10;15.27;;;4.50;99.90;;;;;;5032782;28;20478;-80
2023/12/19 10:13:09;;;;;;;17.00;15.30;;;4.70;99.90;;;;;;5038804;28;20454;-81
2023/12/19 10:15:48;;;;;;;18.03;15.53;;;4.90;99.90;;;;;;5038819;28;20474;-80
2023/12/19 10:18:23;;;;;;;17.87;15.53;;;5.20;99.90;;;;;;5034569;28;20474;-81
2023/12/19 10:20:59;;;;;;;16.70;14.90;;;4.90;99.90;;;;;;5034026;28;20469;-80
2023/12/19 10:23:32;;;;;;;16.27;14.57;;;4.90;99.90;;;;;;5030489;28;20436;-82
2023/12/19 10:26:01;;;;;;;18.03;16.20;;;4.70;99.90;;;;;;5031662;28;20427;-78
2023/12/19 10:28:32;;;;;;;17.37;15.60;;;4.70;99.90;;;;;;5030950;28;20456;-82
2023/12/19 10:31:15;;;;;;;24.70;15.37;;;4.60;99.90;;;;;;5032923;28;20490;-80
2023/12/19 10:33:51;;;;;;;15.73;14.23;;;4.40;99.90;;;;;;5033873;28;20458;-83
2023/12/19 10:36:33;;;;;;;16.73;15.03;;;3.80;99.90;;;;;;5032442;28;20455;-82
2023/12/19 10:39:07;;;;;;;16.53;14.83;;;3.70;99.90;;;;;;5032449;28;20486;-80
2023/12/19 10:41:40;;;;;;;16.00;13.80;;;3.60;99.90;;;;;;5031107;28;20480;-83
2023/12/19 10:44:09;;;;;;;18.40;16.47;;;3.30;99.90;;;;;;5032992;28;20542;-80
2023/12/19 10:46:42;;;;;;;15.53;14.07;;;3.20;99.90;;;;;;5031970;28;20462;-79
2023/12/19 10:49:20;;;;;;;16.20;14.47;;;3.50;99.90;;;;;;5030402;28;20439;-83
2023/12/19 10:52:04;;;;;;;15.67;14.00;;;3.60;99.90;;;;;;5035523;28;20451;-82
2023/12/19 10:54:44;;;;;;;19.10;14.73;;;3.60;99.90;;;;;;5035373;28;20450;-82
2023/12/19 10:57:21;;;;;;;16.40;14.70;;;3.70;99.90;;;;;;5017465;28;20462;-81
2023/12/19 10:59:55;;;;;;;16.20;14.50;;;3.80;99.90;;;;;;5016308;28;20490;-80
2023/12/19 11:02:37;;;;;;;16.50;14.80;;;3.70;99.90;;;;;;5016875;28;20454;-82
2023/12/19 11:05:19;;;;;;;19.53;16.23;;;3.50;99.90;;;;;;5016195;28;20440;-78
2023/12/19 11:08:07;;;;;;;17.53;15.40;;;3.10;99.90;;;;;;5014641;28;20460;-83
2023/12/19 11:11:00;;;;;;;18.53;16.53;;;3.00;99.90;;;;;;5016375;28;20460;-82
2023/12/19 11:13:34;;;;;;;21.70;17.70;;;2.90;99.90;;;;;;5016943;28;20459;-81
2023/12/19 11:16:19;;;;;;;19.90;17.80;;;2.70;99.90;;;;;;5016716;28;20442;-82
2023/12/19 11:18:59;;;;;;;21.10;18.67;;;2.60;99.90;;;;;;5016677;28;20459;-80
2023/12/19 11:21:47;;;;;;;22.70;18.13;;;2.90;99.90;;;;;;5034125;28;20458;-86
2023/12/19 11:24:27;;;;;;;21.10;18.53;;;3.00;99.90;;;;;;5036978;28;20454;-81
2023/12/19 11:27:05;;;;;;;20.63;17.00;;;3.30;99.90;;;;;;5036851;28;20467;-83
2023/12/19 11:30:19;;;;;;;18.23;16.33;;;3.40;99.90;;;;;;5025965;28;20447;-83
2023/12/19 11:33:13;;;;;;;17.90;16.00;;;3.60;99.90;;;;;;5016691;28;20446;-83
2023/12/19 11:36:09;;;;;;;20.10;16.50;;;3.70;99.90;;;;;;5038278;28;20451;-83
2023/12/19 11:38:58;;;;;;;20.30;18.13;;;3.60;99.90;;;;;;5041519;28;20482;-84
2023/12/19 11:41:48;;;;;;;21.57;16.47;;;3.50;99.90;;;;;;5036004;28;20458;-84
2023/12/19 11:44:34;;;;;;;20.70;16.90;;;3.70;99.90;;;;;;5021144;28;20492;-81
2023/12/19 11:47:21;;;;;;;17.70;15.80;;;3.50;99.90;;;;;;5038012;28;20435;-81
2023/12/19 11:49:57;;;;;;;19.37;17.37;;;3.80;99.90;;;;;;5037131;28;20460;-80
2023/12/19 11:52:36;;;;;;;23.30;17.53;;;3.60;99.90;;;;;;5035990;28;20488;-83
2023/12/19 11:55:09;;;;;;;21.13;18.40;;;3.50;99.90;;;;;;5036473;28;20443;-85
2023/12/19 11:57:54;;;;;;;19.73;17.13;;;3.60;99.90;;;;;;5048047;28;20443;-85
2023/12/19 12:00:27;;;;;;;18.80;16.87;;;3.80;99.90;;;;;;5028278;28;20465;-85
2023/12/19 12:02:58;;;;;;;18.33;16.47;;;4.00;99.90;;;;;;5032717;28;20473;-85
2023/12/19 12:05:32;;;;;;;19.80;16.93;;;4.10;99.90;;;;;;5036041;28;20439;-84
2023/12/19 12:08:03;;;;;;;19.73;16.20;;;4.00;99.90;;;;;;5031860;28;20451;-84
2023/12/19 12:10:38;;;;;;;19.70;16.90;;;4.10;99.90;;;;;;5037587;28;20483;-86
2023/12/19 12:13:14;;;;;;;19.33;16.87;;;4.20;99.90;;;;;;5023281;28;20508;-85
2023/12/19 12:15:50;;;;;;;18.00;16.07;;;4.30;99.90;;;;;;5034731;28;20439;-84
2023/12/19 12:18:22;;;;;;;18.97;16.97;;;4.20;99.90;;;;;;5034567;28;20455;-82
2023/12/19 12:20:53;;;;;;;17.33;15.47;;;4.00;99.90;;;;;;5039191;28;20518;-82
2023/12/19 12:23:35;;;;;;;17.30;15.50;;;3.60;99.90;;;;;;5045131;28;20499;-80
2023/12/19 12:26:19;;;;;;;18.23;15.73;;;3.90;99.90;;;;;;5034809;28;20454;-84
2023/12/19 12:29:04;;;;;;;18.63;16.43;;;4.00;99.90;;;;;;5035968;28;20436;-80
2023/12/19 12:31:41;;;;;;;16.27;14.43;;;3.90;99.90;;;;;;5033084;28;20460;-83
2023/12/19 12:44:26;;;;;;;18.63;16.67;;;3.90;99.90;;;;;;5028065;28;20470;-81
2023/12/19 12:47:54;;;;;;;16.33;14.53;;;4.00;99.90;;;;;;5028102;28;20435;-81
2023/12/19 13:42:44;;;;;;;14.07;12.67;;;4.20;99.90;;;;;;524945;26;20743;-82
2023/12/19 13:45:41;;;;;;;14.77;13.40;;;4.20;99.90;;;;;;5063588;28;20457;-79
2023/12/19 13:48:34;;;;;;;14.53;13.03;;;4.20;99.90;;;;;;5062723;28;20478;-80
2023/12/19 14:04:46;;;;;;;13.10;11.80;;;4.10;99.90;;;;;;4940788;29;20447;-82
2023/12/19 14:07:16;;;;;;;13.47;10.93;;;4.10;99.90;;;;;;4985696;28;20845;-83